Time;durP1;ratioP1;P1;durP2;ratioP2;P2;SDS_P1;SDS_P2;PMS_P1;PMS_P2;Temp;Humidity;BMP_temperature;BMP_pressure;BME280_temperature;BME280_humidity;BME280_pressure;Samples;Min_cycle;Max_cycle;Signal;HPM_P1;HPM_P2
2022/04/30 00:00:34;;;;;;;3.17;1.70;;;23.40;44.50;;;;;;4994309;28;20127;-62
2022/04/30 00:03:00;;;;;;;3.92;1.90;;;23.40;44.50;;;;;;4991190;28;20048;-65
2022/04/30 00:05:30;;;;;;;3.15;1.55;;;23.40;44.50;;;;;;4994380;28;20046;-64
2022/04/30 00:07:56;;;;;;;3.10;1.67;;;23.40;44.60;;;;;;4995164;28;20022;-64
2022/04/30 00:10:23;;;;;;;3.80;1.73;;;23.40;44.50;;;;;;4994801;28;20430;-63
2022/04/30 00:12:49;;;;;;;3.53;1.85;;;23.40;44.60;;;;;;4994704;28;20398;-61
2022/04/30 00:15:15;;;;;;;3.05;1.70;;;23.40;44.60;;;;;;4994078;28;20026;-66
2022/04/30 00:17:40;;;;;;;2.63;1.65;;;23.30;44.50;;;;;;4991514;28;20038;-65
2022/04/30 00:20:07;;;;;;;4.50;1.70;;;23.30;44.50;;;;;;4994131;28;20045;-64
2022/04/30 00:22:34;;;;;;;3.00;1.60;;;23.30;44.50;;;;;;4993695;28;20030;-65
2022/04/30 00:24:59;;;;;;;2.30;1.33;;;23.30;44.50;;;;;;4992920;28;20022;-63
2022/04/30 00:27:25;;;;;;;2.80;1.52;;;23.30;44.50;;;;;;4995306;28;20036;-65
2022/04/30 00:29:52;;;;;;;3.40;1.80;;;23.30;44.50;;;;;;4994598;28;20045;-64
2022/04/30 00:32:17;;;;;;;2.85;1.60;;;23.30;44.40;;;;;;4993396;28;20033;-66
2022/04/30 00:34:43;;;;;;;2.90;1.60;;;23.30;44.50;;;;;;4997378;28;20064;-63
2022/04/30 00:37:09;;;;;;;3.22;1.70;;;23.30;44.50;;;;;;4999051;28;20037;-64
2022/04/30 00:39:35;;;;;;;2.58;1.42;;;23.30;44.50;;;;;;4999001;28;20034;-63
2022/04/30 00:42:01;;;;;;;3.03;1.58;;;23.30;44.80;;;;;;4997476;28;20042;-63
2022/04/30 00:44:27;;;;;;;3.28;1.60;;;23.30;44.50;;;;;;4997597;28;20053;-65
2022/04/30 00:46:54;;;;;;;3.30;1.75;;;23.30;44.50;;;;;;4995818;28;20057;-64
2022/04/30 00:49:20;;;;;;;3.40;2.03;;;23.20;44.50;;;;;;4995311;28;20516;-63
2022/04/30 00:51:45;;;;;;;2.78;1.52;;;23.20;44.50;;;;;;4997693;28;20128;-64
2022/04/30 00:54:13;;;;;;;3.03;1.60;;;23.30;44.60;;;;;;4997937;28;20118;-65
2022/04/30 00:56:49;;;;;;;3.15;1.60;;;23.30;44.50;;;;;;4998379;28;20521;-61
2022/04/30 00:59:17;;;;;;;2.95;1.55;;;23.20;44.50;;;;;;4998559;28;20025;-65
2022/04/30 01:01:44;;;;;;;3.22;1.60;;;23.20;44.50;;;;;;4994672;28;20192;-64
2022/04/30 01:04:10;;;;;;;3.15;1.70;;;23.20;44.60;;;;;;4996191;28;20026;-64
2022/04/30 01:07:03;;;;;;;2.83;1.55;;;23.20;44.50;;;;;;4997483;28;20068;-63
2022/04/30 01:09:34;;;;;;;3.00;1.52;;;23.20;44.50;;;;;;4998014;28;20052;-62
2022/04/30 01:12:02;;;;;;;2.60;1.45;;;23.20;44.50;;;;;;4997681;28;20129;-65
2022/04/30 01:14:31;;;;;;;2.70;1.70;;;23.20;44.50;;;;;;4996914;28;20216;-65
2022/04/30 01:16:58;;;;;;;3.50;1.90;;;23.20;44.50;;;;;;4995576;28;20026;-61
2022/04/30 01:19:26;;;;;;;3.70;1.55;;;23.20;44.50;;;;;;4995769;28;20155;-63
2022/04/30 01:21:55;;;;;;;3.30;1.67;;;23.20;44.50;;;;;;4997803;28;20127;-64
2022/04/30 01:24:22;;;;;;;3.22;1.67;;;23.20;44.60;;;;;;4995583;28;20183;-64
2022/04/30 01:26:51;;;;;;;2.95;1.58;;;23.20;44.60;;;;;;4996922;28;20390;-61
2022/04/30 01:29:18;;;;;;;3.08;1.65;;;23.20;44.50;;;;;;4998315;28;20733;-65
2022/04/30 01:37:24;;;;;;;2.55;1.50;;;23.20;44.60;;;;;;4996882;28;20080;-63
2022/04/30 01:39:56;;;;;;;2.95;1.70;;;23.10;44.50;;;;;;4996874;28;20052;-63
2022/04/30 01:42:23;;;;;;;2.67;1.60;;;23.20;44.60;;;;;;4997265;28;20159;-63
2022/04/30 01:44:49;;;;;;;2.45;1.58;;;23.10;44.50;;;;;;4995617;28;20057;-62
2022/04/30 01:47:17;;;;;;;2.80;1.48;;;23.10;44.50;;;;;;4995769;28;20034;-64
2022/04/30 01:49:43;;;;;;;2.17;1.30;;;23.10;44.60;;;;;;4993410;28;20048;-65
2022/04/30 01:52:10;;;;;;;2.55;1.58;;;23.10;45.10;;;;;;4996567;28;20106;-64
2022/04/30 01:54:36;;;;;;;2.63;1.60;;;23.10;44.60;;;;;;4997681;28;20018;-65
2022/04/30 01:57:02;;;;;;;2.80;1.40;;;23.10;44.60;;;;;;4994956;28;20060;-63
2022/04/30 01:59:28;;;;;;;3.25;1.70;;;23.10;44.60;;;;;;4995933;28;21376;-65
2022/04/30 02:01:55;;;;;;;2.28;1.50;;;23.10;44.50;;;;;;4995292;28;20121;-62
2022/04/30 02:04:22;;;;;;;3.25;1.50;;;23.10;44.50;;;;;;4992501;28;20709;-61
2022/04/30 02:06:49;;;;;;;2.88;1.77;;;23.10;44.60;;;;;;4995145;28;20029;-64
2022/04/30 02:09:15;;;;;;;3.05;1.70;;;23.10;44.50;;;;;;4997375;28;20040;-63
2022/04/30 02:11:44;;;;;;;2.83;1.70;;;23.10;44.60;;;;;;4997375;28;20030;-64
2022/04/30 02:14:14;;;;;;;3.17;1.60;;;23.10;44.60;;;;;;4996816;28;20033;-62
2022/04/30 02:16:42;;;;;;;2.92;1.40;;;23.10;44.60;;;;;;4990558;28;20097;-61
2022/04/30 02:19:08;;;;;;;3.00;1.50;;;23.10;44.60;;;;;;4992689;28;20030;-62
2022/04/30 02:21:35;;;;;;;2.63;1.55;;;23.10;44.60;;;;;;4997212;28;20439;-64
2022/04/30 02:24:02;;;;;;;2.55;1.50;;;23.10;44.60;;;;;;4996902;28;20057;-64
2022/04/30 02:26:29;;;;;;;2.10;1.45;;;23.10;44.60;;;;;;4993985;28;20026;-63
2022/04/30 02:28:57;;;;;;;1.90;1.33;;;23.10;44.60;;;;;;4997132;28;20038;-62
2022/04/30 02:31:25;;;;;;;2.55;1.45;;;23.00;44.60;;;;;;4994914;28;20129;-63
2022/04/30 02:33:56;;;;;;;2.70;1.67;;;23.10;44.70;;;;;;4993857;28;20030;-61
2022/04/30 02:36:26;;;;;;;2.55;1.40;;;23.00;44.70;;;;;;4994270;28;20188;-64
2022/04/30 02:38:55;;;;;;;3.50;1.58;;;23.00;44.70;;;;;;4997880;28;20034;-61
2022/04/30 02:41:24;;;;;;;;;;;23.00;44.70;;;;;;4996571;28;20039;-61
2022/04/30 02:43:52;;;;;;;2.40;1.40;;;23.00;44.70;;;;;;4995352;28;20010;-64
2022/04/30 02:46:20;;;;;;;2.17;1.40;;;23.00;44.70;;;;;;4994253;28;20041;-64
2022/04/30 02:48:47;;;;;;;2.40;1.30;;;23.00;44.60;;;;;;4993260;28;20044;-65
2022/04/30 02:51:15;;;;;;;2.78;1.50;;;23.00;44.60;;;;;;4995305;28;20107;-64
2022/04/30 02:53:44;;;;;;;2.75;1.55;;;23.00;44.70;;;;;;4995971;28;20079;-65
2022/04/30 02:56:10;;;;;;;2.05;1.33;;;23.00;44.70;;;;;;4995244;28;20164;-63
2022/04/30 03:01:21;;;;;;;2.78;1.52;;;23.00;44.70;;;;;;4993816;28;20064;-61
2022/04/30 03:03:48;;;;;;;2.35;1.50;;;23.00;44.70;;;;;;4993530;28;20038;-63
2022/04/30 03:06:14;;;;;;;1.90;1.27;;;22.90;44.70;;;;;;4994985;28;20038;-64
2022/04/30 03:08:40;;;;;;;2.78;1.50;;;23.00;44.70;;;;;;4995585;28;20057;-64
2022/04/30 03:11:07;;;;;;;2.55;1.65;;;22.90;44.70;;;;;;4995952;28;20032;-64
2022/04/30 03:13:35;;;;;;;3.15;1.40;;;22.90;44.70;;;;;;4994626;28;20029;-64
2022/04/30 03:21:41;;;;;;;2.28;1.50;;;22.90;44.70;;;;;;4992088;28;20069;-65
2022/04/30 03:22:05;;;;;;;2.30;1.33;;;22.90;44.70;;;;;;4995255;28;20091;-62
2022/04/30 03:24:27;;;;;;;3.33;1.65;;;22.90;44.70;;;;;;4993574;28;20058;-61
2022/04/30 03:26:52;;;;;;;3.13;1.67;;;22.90;44.70;;;;;;4995828;28;20034;-63
2022/04/30 03:29:19;;;;;;;3.72;1.70;;;22.90;44.70;;;;;;4996510;28;20665;-65
2022/04/30 03:31:44;;;;;;;3.00;1.70;;;22.90;44.70;;;;;;4994412;28;20037;-64
2022/04/30 03:34:12;;;;;;;2.95;1.48;;;22.90;44.70;;;;;;4993259;28;20034;-64
2022/04/30 03:36:38;;;;;;;3.05;1.50;;;22.90;44.70;;;;;;4993806;28;20025;-65
2022/04/30 03:39:04;;;;;;;2.33;1.40;;;22.90;44.70;;;;;;4993637;28;20672;-63
2022/04/30 03:41:30;;;;;;;2.08;1.42;;;22.90;44.70;;;;;;4995491;28;20116;-64
2022/04/30 03:43:56;;;;;;;2.10;1.35;;;22.90;44.70;;;;;;4992230;28;20042;-65
2022/04/30 03:46:21;;;;;;;2.35;1.42;;;22.90;44.70;;;;;;4994030;28;20026;-64
2022/04/30 03:48:51;;;;;;;2.70;1.30;;;22.90;44.70;;;;;;4992414;28;20042;-62
2022/04/30 03:51:17;;;;;;;2.58;1.38;;;22.80;44.70;;;;;;4994728;28;20037;-64
2022/04/30 03:53:43;;;;;;;2.35;1.40;;;22.80;44.60;;;;;;4993256;28;20041;-64
2022/04/30 03:56:09;;;;;;;2.38;1.30;;;22.80;44.60;;;;;;4994547;28;20371;-65
2022/04/30 03:58:35;;;;;;;2.33;1.40;;;22.90;44.70;;;;;;4995170;28;20140;-65
2022/04/30 04:01:01;;;;;;;2.55;1.40;;;22.80;44.60;;;;;;4990899;28;20487;-64
2022/04/30 04:03:27;;;;;;;2.58;1.60;;;22.90;44.70;;;;;;4989550;28;20060;-65
2022/04/30 04:05:52;;;;;;;2.42;1.40;;;22.90;44.70;;;;;;4992630;28;20038;-64
2022/04/30 04:08:20;;;;;;;2.53;1.40;;;22.80;44.60;;;;;;4998059;28;20432;-64
2022/04/30 04:10:47;;;;;;;2.17;1.25;;;22.90;44.70;;;;;;4997897;28;20030;-65
2022/04/30 04:18:41;;;;;;;2.28;1.20;;;22.80;44.60;;;;;;4997155;28;20092;-62
2022/04/30 04:21:08;;;;;;;2.58;1.60;;;22.80;44.60;;;;;;4996398;28;20026;-64
2022/04/30 04:25:59;;;;;;;2.10;1.30;;;22.80;44.60;;;;;;4998850;28;20033;-64
2022/04/30 04:26:20;;;;;;;2.85;1.55;;;22.80;44.60;;;;;;4995656;28;20076;-64
2022/04/30 04:28:46;;;;;;;2.92;1.30;;;22.80;44.60;;;;;;4997809;28;20065;-63
2022/04/30 04:31:12;;;;;;;2.00;1.30;;;22.80;44.60;;;;;;4995305;28;20034;-65
2022/04/30 04:33:38;;;;;;;2.38;1.33;;;22.80;44.60;;;;;;4997246;28;20045;-65
2022/04/30 04:36:04;;;;;;;2.30;1.50;;;22.80;44.60;;;;;;4995899;28;20358;-64
2022/04/30 04:38:33;;;;;;;2.60;1.45;;;22.80;44.60;;;;;;4998327;28;20030;-65
2022/04/30 04:40:59;;;;;;;2.33;1.30;;;22.80;44.60;;;;;;4994621;28;20169;-62
2022/04/30 04:43:25;;;;;;;2.22;1.40;;;22.80;44.60;;;;;;4998599;28;20057;-63
2022/04/30 04:45:50;;;;;;;2.30;1.30;;;22.80;44.50;;;;;;4994711;28;20033;-65
2022/04/30 04:48:16;;;;;;;1.92;1.23;;;22.80;44.50;;;;;;4996314;28;20367;-62
2022/04/30 04:50:43;;;;;;;2.35;1.38;;;22.80;44.50;;;;;;4993302;28;20026;-65
2022/04/30 04:53:09;;;;;;;2.28;1.40;;;22.80;44.50;;;;;;4998853;28;20029;-62
2022/04/30 04:55:35;;;;;;;2.15;1.48;;;22.80;44.50;;;;;;4996487;28;20084;-63
2022/04/30 04:58:01;;;;;;;2.40;1.40;;;22.80;44.50;;;;;;4997388;28;20022;-65
2022/04/30 05:00:27;;;;;;;2.05;1.45;;;22.70;44.50;;;;;;4995591;28;20037;-64
2022/04/30 05:02:56;;;;;;;2.10;1.23;;;22.80;44.50;;;;;;4996567;28;20029;-65
2022/04/30 05:05:22;;;;;;;2.13;1.35;;;22.80;44.50;;;;;;4994953;28;20104;-63
2022/04/30 05:07:47;;;;;;;2.17;1.40;;;22.80;44.50;;;;;;4997168;28;20042;-64
2022/04/30 05:10:13;;;;;;;2.33;1.35;;;22.80;44.50;;;;;;4991530;28;20042;-64
2022/04/30 05:12:38;;;;;;;2.20;1.30;;;22.80;44.50;;;;;;4990915;28;20029;-64
2022/04/30 05:15:05;;;;;;;2.70;1.60;;;22.70;44.50;;;;;;4992507;28;20680;-64
2022/04/30 05:17:32;;;;;;;2.45;1.30;;;22.80;44.50;;;;;;4994309;28;20030;-65
2022/04/30 05:19:57;;;;;;;2.05;1.23;;;22.70;44.40;;;;;;4994593;28;20065;-64
2022/04/30 05:22:23;;;;;;;1.98;1.30;;;22.70;44.50;;;;;;4992335;28;20083;-63
2022/04/30 05:24:49;;;;;;;2.63;1.48;;;22.70;44.40;;;;;;4990845;28;20030;-63
2022/04/30 05:27:14;;;;;;;1.77;1.17;;;22.70;44.40;;;;;;4995185;28;20125;-64
2022/04/30 05:29:40;;;;;;;2.50;1.30;;;22.70;44.40;;;;;;4990977;28;20037;-64
2022/04/30 05:32:06;;;;;;;2.58;1.40;;;22.70;44.40;;;;;;4993887;28;20076;-64
2022/04/30 05:34:32;;;;;;;2.08;1.20;;;22.70;44.40;;;;;;4993716;28;20146;-65
2022/04/30 05:36:58;;;;;;;2.08;1.30;;;22.70;44.50;;;;;;4997391;28;20179;-63
2022/04/30 05:39:24;;;;;;;1.58;1.27;;;22.70;44.50;;;;;;4997004;28;20164;-65
2022/04/30 05:41:49;;;;;;;2.78;1.52;;;22.70;44.50;;;;;;4996474;28;20030;-65
2022/04/30 05:44:15;;;;;;;2.17;1.20;;;22.70;44.50;;;;;;4998091;28;20026;-64
2022/04/30 05:46:41;;;;;;;2.22;1.38;;;22.70;44.50;;;;;;4993724;28;20037;-62
2022/04/30 05:49:06;;;;;;;2.30;1.33;;;22.70;44.50;;;;;;4994789;28;20033;-63
2022/04/30 05:51:32;;;;;;;2.05;1.30;;;22.70;44.50;;;;;;4993637;28;20033;-62
2022/04/30 05:53:57;;;;;;;2.38;1.30;;;22.70;44.50;;;;;;4996864;28;20537;-62
2022/04/30 05:56:23;;;;;;;2.08;1.33;;;22.70;44.50;;;;;;4993567;28;20041;-65
2022/04/30 05:58:49;;;;;;;2.40;1.40;;;22.70;44.40;;;;;;4997403;28;20041;-61
2022/04/30 06:01:15;;;;;;;1.63;1.10;;;22.70;44.40;;;;;;4991657;28;20049;-65
2022/04/30 06:03:41;;;;;;;2.25;1.15;;;22.60;44.40;;;;;;4989324;28;20037;-64
2022/04/30 06:06:06;;;;;;;3.60;1.40;;;22.60;44.40;;;;;;4992768;28;20179;-63
2022/04/30 06:08:32;;;;;;;2.22;1.40;;;22.70;44.40;;;;;;4993850;28;20627;-64
2022/04/30 06:11:00;;;;;;;2.67;1.40;;;22.60;44.40;;;;;;4992945;28;20029;-63
2022/04/30 06:13:25;;;;;;;2.45;1.45;;;22.60;44.40;;;;;;4995339;28;20049;-63
2022/04/30 06:15:51;;;;;;;2.60;1.23;;;22.60;44.40;;;;;;4986139;28;20639;-62
2022/04/30 06:18:17;;;;;;;1.92;1.30;;;22.60;44.40;;;;;;4983347;28;20112;-65
2022/04/30 06:20:44;;;;;;;3.65;1.30;;;22.70;44.40;;;;;;4985712;28;20033;-63
2022/04/30 06:23:09;;;;;;;3.28;1.50;;;22.60;44.30;;;;;;4991043;28;20038;-66
2022/04/30 06:25:36;;;;;;;2.17;1.42;;;22.60;44.40;;;;;;4992349;28;20037;-63
2022/04/30 06:28:02;;;;;;;2.85;1.27;;;22.60;44.40;;;;;;4994271;28;20109;-62
2022/04/30 06:30:27;;;;;;;1.90;1.30;;;22.70;44.40;;;;;;4993370;28;21421;-65
2022/04/30 06:32:53;;;;;;;1.83;1.10;;;22.70;44.40;;;;;;4993687;28;20129;-65
2022/04/30 06:35:19;;;;;;;2.42;1.27;;;22.60;44.30;;;;;;4993531;28;20181;-62
2022/04/30 06:37:44;;;;;;;1.95;1.27;;;22.60;44.40;;;;;;4994967;28;20526;-63
2022/04/30 06:40:12;;;;;;;2.08;1.40;;;22.70;44.40;;;;;;4995198;28;20650;-64
2022/04/30 06:42:47;;;;;;;2.05;1.27;;;22.60;44.40;;;;;;4992870;28;20037;-61
2022/04/30 06:45:13;;;;;;;2.78;1.30;;;22.60;44.40;;;;;;4995555;28;20037;-61
2022/04/30 06:47:40;;;;;;;3.10;1.60;;;22.60;44.40;;;;;;4992441;28;20030;-65
2022/04/30 06:50:06;;;;;;;2.53;1.20;;;22.60;44.40;;;;;;4993705;28;20033;-66
2022/04/30 06:52:32;;;;;;;2.40;1.30;;;22.60;44.40;;;;;;4996370;28;20674;-63
2022/04/30 06:57:47;;;;;;;2.45;1.30;;;22.60;44.80;;;;;;4993915;28;20037;-63
2022/04/30 07:02:57;;;;;;;1.60;1.10;;;22.60;44.60;;;;;;4994201;28;20168;-61
2022/04/30 07:05:23;;;;;;;2.60;1.30;;;22.60;44.60;;;;;;4993526;28;20100;-62
2022/04/30 07:07:49;;;;;;;2.15;1.20;;;22.60;44.60;;;;;;4995151;28;20084;-61
2022/04/30 07:10:14;;;;;;;2.35;1.10;;;22.60;44.70;;;;;;4993804;28;20054;-62
2022/04/30 07:12:40;;;;;;;2.50;1.30;;;22.50;44.60;;;;;;4993079;28;20037;-66
2022/04/30 07:15:06;;;;;;;2.33;1.23;;;22.60;44.70;;;;;;4992818;28;20034;-63
2022/04/30 07:17:32;;;;;;;2.15;1.40;;;22.60;44.70;;;;;;4990099;28;20037;-64
2022/04/30 07:19:58;;;;;;;1.92;1.30;;;22.60;44.70;;;;;;4993886;28;20025;-64
2022/04/30 07:22:23;;;;;;;2.42;1.30;;;22.60;44.70;;;;;;4997062;28;20034;-62
2022/04/30 07:24:51;;;;;;;2.65;1.30;;;22.50;44.70;;;;;;4994782;28;20029;-64
2022/04/30 07:27:16;;;;;;;2.25;1.25;;;22.50;44.70;;;;;;4992926;28;20121;-62
2022/04/30 07:29:43;;;;;;;2.13;1.50;;;22.50;44.60;;;;;;4994485;28;20466;-65
2022/04/30 07:32:09;;;;;;;1.98;1.45;;;22.50;44.50;;;;;;4994012;28;20041;-63
2022/04/30 07:34:35;;;;;;;3.15;1.67;;;22.50;44.40;;;;;;4993070;28;20741;-63
2022/04/30 07:37:01;;;;;;;2.65;1.73;;;22.50;44.30;;;;;;4991058;28;20109;-64
2022/04/30 07:39:27;;;;;;;4.18;1.98;;;22.50;44.10;;;;;;4995489;28;20116;-65
2022/04/30 07:41:56;;;;;;;2.33;1.70;;;22.50;43.90;;;;;;4990841;28;20460;-63
2022/04/30 07:44:22;;;;;;;2.53;1.83;;;22.50;43.70;;;;;;4993441;28;20073;-63
2022/04/30 07:46:48;;;;;;;2.53;2.00;;;22.50;43.60;;;;;;4991117;28;20853;-61
2022/04/30 07:49:13;;;;;;;2.88;2.10;;;22.50;43.50;;;;;;4994069;28;20116;-63
2022/04/30 07:51:42;;;;;;;3.15;2.15;;;22.50;43.40;;;;;;4992807;28;21319;-62
2022/04/30 07:54:08;;;;;;;3.25;2.30;;;22.40;43.30;;;;;;4996321;28;20030;-62
2022/04/30 07:56:34;;;;;;;2.88;2.08;;;22.40;43.20;;;;;;4992890;28;20044;-61
2022/04/30 07:59:00;;;;;;;3.40;2.22;;;22.50;43.20;;;;;;4995186;28;20034;-65
2022/04/30 08:01:25;;;;;;;3.25;2.45;;;22.40;43.00;;;;;;4988498;28;20042;-63
2022/04/30 08:03:51;;;;;;;3.13;2.30;;;22.40;43.00;;;;;;4986407;28;20044;-66
2022/04/30 08:06:17;;;;;;;3.42;2.60;;;22.50;43.00;;;;;;4987578;28;20034;-65
2022/04/30 08:08:42;;;;;;;3.15;1.95;;;22.40;42.90;;;;;;4987964;28;20590;-63
2022/04/30 08:11:08;;;;;;;3.28;2.50;;;22.50;43.00;;;;;;4991909;28;20080;-63
2022/04/30 08:13:33;;;;;;;4.05;2.17;;;22.50;43.00;;;;;;4991983;28;20026;-61
2022/04/30 08:15:59;;;;;;;3.00;2.20;;;22.50;43.10;;;;;;4990571;28;20068;-65
2022/04/30 08:18:26;;;;;;;3.30;2.10;;;22.50;43.20;;;;;;4989286;28;20053;-63
2022/04/30 08:20:52;;;;;;;2.75;2.00;;;22.50;43.20;;;;;;4990207;28;20026;-63
2022/04/30 08:23:18;;;;;;;3.78;2.42;;;22.50;43.20;;;;;;4992530;28;20716;-63
2022/04/30 08:25:44;;;;;;;3.63;2.10;;;22.50;43.30;;;;;;4989766;28;20022;-63
2022/04/30 08:28:10;;;;;;;3.00;2.40;;;22.50;43.30;;;;;;4990531;28;20089;-64
2022/04/30 08:30:35;;;;;;;3.53;2.38;;;22.50;43.30;;;;;;4991076;28;20037;-64
2022/04/30 08:33:01;;;;;;;2.88;2.08;;;22.50;43.30;;;;;;4988177;28;20620;-65
2022/04/30 08:35:27;;;;;;;3.78;2.20;;;22.50;43.40;;;;;;4990370;28;20038;-65
2022/04/30 08:37:53;;;;;;;3.20;2.30;;;22.50;43.40;;;;;;4990851;28;20026;-63
2022/04/30 08:40:18;;;;;;;2.63;2.00;;;22.50;43.40;;;;;;4990003;28;20030;-63
2022/04/30 08:42:45;;;;;;;2.70;2.10;;;22.50;43.50;;;;;;4990444;28;20056;-65
2022/04/30 08:45:11;;;;;;;2.60;2.10;;;22.50;43.50;;;;;;4990800;28;20017;-63
2022/04/30 08:47:42;;;;;;;3.10;2.10;;;22.50;43.50;;;;;;4988258;28;20732;-62
2022/04/30 08:50:13;;;;;;;2.80;2.20;;;22.50;43.50;;;;;;4991924;28;20038;-65
2022/04/30 08:52:39;;;;;;;2.90;2.10;;;22.50;43.60;;;;;;4991614;28;20042;-65
2022/04/30 08:55:06;;;;;;;3.72;2.40;;;22.50;43.70;;;;;;4994497;28;20092;-63
2022/04/30 08:57:32;;;;;;;3.75;2.30;;;22.40;43.60;;;;;;4994384;28;20469;-62
2022/04/30 08:59:58;;;;;;;2.95;2.20;;;22.50;43.70;;;;;;4995803;28;20029;-64
2022/04/30 09:02:25;;;;;;;3.70;2.35;;;22.50;43.70;;;;;;4990418;28;20519;-64
2022/04/30 09:04:51;;;;;;;3.22;2.10;;;22.50;43.80;;;;;;4994060;28;20174;-63
2022/04/30 09:07:22;;;;;;;3.33;2.30;;;22.50;43.70;;;;;;4990882;28;20481;-61
2022/04/30 09:09:55;;;;;;;2.33;1.83;;;22.50;43.70;;;;;;4992978;28;20099;-61
2022/04/30 09:12:21;;;;;;;3.13;2.10;;;22.50;43.80;;;;;;4996095;28;20025;-63
2022/04/30 09:14:47;;;;;;;3.00;2.05;;;22.50;43.80;;;;;;4991920;28;20022;-62
2022/04/30 09:17:14;;;;;;;3.88;2.30;;;22.50;43.80;;;;;;4991303;28;20037;-65
2022/04/30 09:19:47;;;;;;;3.85;2.05;;;22.50;43.90;;;;;;4991381;28;20103;-65
2022/04/30 09:22:16;;;;;;;3.08;2.20;;;22.50;43.80;;;;;;4995183;28;20036;-65
2022/04/30 09:24:49;;;;;;;3.15;2.13;;;22.50;43.90;;;;;;4994393;28;20041;-61
2022/04/30 09:27:18;;;;;;;2.80;1.95;;;22.50;43.90;;;;;;4994183;28;22505;-65
2022/04/30 09:29:45;;;;;;;3.28;2.00;;;22.50;43.90;;;;;;4991926;28;20120;-64
2022/04/30 09:32:18;;;;;;;2.33;2.00;;;22.50;44.00;;;;;;4986538;28;20040;-63
2022/04/30 09:37:42;;;;;;;3.40;2.00;;;22.50;44.60;;;;;;4997412;28;20033;-63
2022/04/30 09:40:13;;;;;;;;;;;22.50;44.10;;;;;;4993046;28;20617;-65
2022/04/30 09:42:43;;;;;;;2.95;1.90;;;22.50;44.20;;;;;;4995870;28;19909;-65
2022/04/30 09:45:21;;;;;;;2.60;1.88;;;22.50;44.10;;;;;;4994740;28;20106;-65
2022/04/30 09:47:47;;;;;;;2.70;2.10;;;22.40;44.10;;;;;;5007739;22;20021;-64
2022/04/30 09:55:44;;;;;;;2.72;1.88;;;22.50;44.20;;;;;;4995850;28;20513;-63
2022/04/30 09:58:15;;;;;;;2.50;1.70;;;22.50;44.20;;;;;;4993353;28;20094;-67
2022/04/30 10:00:41;;;;;;;2.95;1.85;;;22.50;44.20;;;;;;4995805;28;20044;-65
2022/04/30 10:03:08;;;;;;;3.03;2.00;;;22.50;44.30;;;;;;4991043;28;20034;-65
2022/04/30 10:05:36;;;;;;;2.40;1.80;;;22.50;44.30;;;;;;5005100;28;20244;-67
2022/04/30 10:08:02;;;;;;;2.53;1.80;;;22.50;44.30;;;;;;4993528;28;20022;-67
2022/04/30 10:10:51;;;;;;;3.33;1.95;;;22.50;44.30;;;;;;5009978;28;20407;-64
2022/04/30 10:13:28;;;;;;;2.47;2.00;;;22.50;44.40;;;;;;4994739;28;20676;-68
2022/04/30 10:15:57;;;;;;;2.58;1.90;;;22.50;44.40;;;;;;4992600;28;20037;-66
2022/04/30 10:18:33;;;;;;;3.70;2.23;;;22.50;44.40;;;;;;4991096;28;20104;-67
2022/04/30 10:21:00;;;;;;;2.80;1.80;;;22.50;44.40;;;;;;4993047;28;20284;-64
2022/04/30 10:23:26;;;;;;;3.60;2.03;;;22.50;44.40;;;;;;4991590;28;20053;-67
2022/04/30 10:25:54;;;;;;;2.80;1.90;;;22.50;44.50;;;;;;4994015;28;20140;-67
2022/04/30 10:28:23;;;;;;;2.80;1.80;;;22.50;44.40;;;;;;4994632;28;20022;-67
2022/04/30 10:31:04;;;;;;;2.83;1.90;;;22.50;44.40;;;;;;4989354;28;20034;-64
2022/04/30 10:33:31;;;;;;;2.55;1.88;;;22.50;44.40;;;;;;4985628;28;20575;-64
2022/04/30 10:36:10;;;;;;;2.30;1.70;;;22.50;44.50;;;;;;4995698;28;20026;-64
2022/04/30 10:38:37;;;;;;;2.60;1.77;;;22.50;44.40;;;;;;4983525;28;20029;-65
2022/04/30 10:41:04;;;;;;;3.08;1.83;;;22.50;44.40;;;;;;4986120;28;20037;-66
2022/04/30 10:43:42;;;;;;;2.78;1.88;;;22.50;44.40;;;;;;4994057;28;20030;-67
2022/04/30 10:46:14;;;;;;;2.38;1.70;;;22.50;44.30;;;;;;4992328;28;20575;-66
2022/04/30 10:48:40;;;;;;;2.97;1.70;;;22.50;44.30;;;;;;4991637;28;20237;-66
2022/04/30 10:51:06;;;;;;;2.45;1.92;;;22.50;44.40;;;;;;4995309;28;21111;-65
2022/04/30 10:53:34;;;;;;;2.80;2.10;;;22.50;44.30;;;;;;5008932;28;20033;-66
2022/04/30 10:56:04;;;;;;;2.67;1.90;;;22.50;44.30;;;;;;4995006;28;20022;-64
2022/04/30 10:58:32;;;;;;;2.78;1.85;;;22.50;44.30;;;;;;4994897;28;20022;-68
2022/04/30 11:01:19;;;;;;;2.83;1.90;;;22.50;44.30;;;;;;4991137;28;20401;-68
2022/04/30 11:03:49;;;;;;;2.47;1.77;;;22.50;44.30;;;;;;4985734;28;20275;-66
2022/04/30 11:06:24;;;;;;;2.45;1.70;;;22.50;44.30;;;;;;4992369;28;20815;-68
2022/04/30 11:09:06;;;;;;;2.60;2.00;;;22.50;44.30;;;;;;4995061;28;20024;-65
2022/04/30 11:11:33;;;;;;;3.60;1.88;;;22.50;44.40;;;;;;4992247;28;20397;-67
2022/04/30 11:14:04;;;;;;;2.63;1.80;;;22.50;44.40;;;;;;4995661;28;20026;-68
2022/04/30 11:16:35;;;;;;;2.08;1.55;;;22.50;44.40;;;;;;4993784;28;20101;-66
2022/04/30 11:19:10;;;;;;;2.85;1.77;;;22.50;44.40;;;;;;4991580;28;20444;-68
2022/04/30 11:21:53;;;;;;;2.70;2.05;;;22.50;44.40;;;;;;4988972;28;20385;-68
2022/04/30 11:24:28;;;;;;;3.22;1.90;;;22.50;44.40;;;;;;4991012;28;20060;-68
2022/04/30 11:27:15;;;;;;;2.28;1.70;;;22.50;44.40;;;;;;4994755;28;20100;-65
2022/04/30 11:29:57;;;;;;;2.72;1.88;;;22.50;44.40;;;;;;4992486;28;20042;-64
2022/04/30 11:32:27;;;;;;;2.67;1.75;;;22.50;44.40;;;;;;4990168;28;20128;-68
2022/04/30 11:35:01;;;;;;;2.45;1.65;;;22.60;44.50;;;;;;4990924;28;20097;-68
2022/04/30 11:37:36;;;;;;;2.35;1.80;;;22.60;44.50;;;;;;4992104;28;20030;-65
2022/04/30 11:40:06;;;;;;;2.05;1.65;;;22.60;44.40;;;;;;4994371;28;20116;-67
2022/04/30 11:42:31;;;;;;;2.28;1.65;;;22.60;44.40;;;;;;4992781;28;20104;-67
2022/04/30 11:44:57;;;;;;;2.22;1.50;;;22.60;44.40;;;;;;4994683;28;20041;-68
2022/04/30 11:47:23;;;;;;;2.10;1.60;;;22.60;44.50;;;;;;4992019;28;20022;-64
2022/04/30 11:49:48;;;;;;;2.30;1.50;;;22.60;44.40;;;;;;4987839;28;20072;-68
2022/04/30 11:52:14;;;;;;;1.70;1.42;;;22.60;44.50;;;;;;4995166;28;20029;-68
2022/04/30 11:54:41;;;;;;;2.30;1.70;;;22.60;44.50;;;;;;4994612;28;20026;-68
2022/04/30 11:57:14;;;;;;;2.33;1.52;;;22.60;44.50;;;;;;5007281;28;20061;-65
2022/04/30 11:59:41;;;;;;;3.25;1.77;;;22.60;44.50;;;;;;4994229;28;20095;-67
2022/04/30 12:02:11;;;;;;;2.20;1.50;;;22.60;44.50;;;;;;4992832;28;20050;-67
2022/04/30 12:04:41;;;;;;;2.50;1.63;;;22.60;44.40;;;;;;4991317;28;20667;-66
2022/04/30 12:07:07;;;;;;;2.42;1.80;;;22.70;44.50;;;;;;4987309;28;20026;-67
2022/04/30 12:09:38;;;;;;;2.60;1.70;;;22.70;44.50;;;;;;4992148;28;20138;-68
2022/04/30 12:12:19;;;;;;;2.60;1.70;;;22.60;44.40;;;;;;4990158;28;20018;-65
2022/04/30 12:14:52;;;;;;;2.03;1.45;;;22.70;44.40;;;;;;4997674;28;20033;-68
2022/04/30 12:17:18;;;;;;;3.05;1.80;;;22.70;44.40;;;;;;4989049;28;20115;-67
2022/04/30 12:25:15;;;;;;;2.50;1.60;;;22.70;44.40;;;;;;4990316;28;20088;-68
2022/04/30 12:27:51;;;;;;;2.05;1.60;;;22.60;44.40;;;;;;4990012;28;20057;-67
2022/04/30 12:30:16;;;;;;;2.13;1.60;;;22.70;44.40;;;;;;4992729;28;20121;-65
2022/04/30 12:32:52;;;;;;;2.20;1.42;;;22.70;44.40;;;;;;4994053;28;20077;-68
2022/04/30 12:35:33;;;;;;;2.13;1.60;;;22.70;44.40;;;;;;4991579;28;20026;-67
2022/04/30 12:38:08;;;;;;;2.03;1.33;;;22.70;44.40;;;;;;5009745;28;20022;-67
2022/04/30 12:40:36;;;;;;;2.13;1.60;;;22.70;44.30;;;;;;4993626;28;20030;-67
2022/04/30 12:43:03;;;;;;;2.53;1.50;;;22.70;44.30;;;;;;4997849;28;20152;-67
2022/04/30 12:45:29;;;;;;;2.28;1.60;;;22.60;44.30;;;;;;4992886;28;20038;-64
2022/04/30 12:47:55;;;;;;;2.20;1.60;;;22.70;44.30;;;;;;4991103;28;20044;-67
2022/04/30 12:50:20;;;;;;;2.42;1.60;;;22.70;44.30;;;;;;4986720;28;20034;-66
2022/04/30 12:52:47;;;;;;;2.50;1.67;;;22.70;44.30;;;;;;4989934;28;20037;-66
2022/04/30 12:55:14;;;;;;;2.80;1.67;;;22.70;44.30;;;;;;4994336;28;20030;-67
2022/04/30 12:57:39;;;;;;;2.25;1.48;;;22.70;44.30;;;;;;4992176;28;20037;-68
2022/04/30 13:00:06;;;;;;;2.45;1.77;;;22.70;44.30;;;;;;4986712;28;20073;-67
2022/04/30 13:02:32;;;;;;;2.47;1.73;;;22.70;44.40;;;;;;4991688;28;20564;-68
2022/04/30 13:04:58;;;;;;;3.78;1.65;;;22.70;44.60;;;;;;4992362;28;20034;-67
2022/04/30 13:07:24;;;;;;;3.20;1.83;;;22.70;44.60;;;;;;4992377;28;20036;-67
2022/04/30 13:15:19;;;;;;;5.03;1.90;;;22.70;45.20;;;;;;4989436;28;20145;-65
2022/04/30 13:17:44;;;;;;;5.75;1.67;;;22.70;45.30;;;;;;4992636;28;20034;-67
2022/04/30 13:20:11;;;;;;;3.40;2.03;;;22.70;45.30;;;;;;4992747;28;20405;-68
2022/04/30 13:22:37;;;;;;;3.58;1.92;;;22.70;45.30;;;;;;4989910;28;20115;-65
2022/04/30 13:25:04;;;;;;;3.25;1.88;;;22.70;45.30;;;;;;4993067;28;20037;-65
2022/04/30 13:27:31;;;;;;;3.35;1.90;;;22.70;45.40;;;;;;4987796;28;20140;-66
2022/04/30 13:29:57;;;;;;;2.90;1.80;;;22.70;45.30;;;;;;4989790;28;20704;-67
2022/04/30 13:32:22;;;;;;;2.88;1.80;;;22.70;45.50;;;;;;4988590;28;20054;-67